sensor_id;sensor_type;location;lat;lon;timestamp;P1;durP1;ratioP1;P2;durP2;ratioP2
1533;SDS011;760;48.822;9.304;2022-08-05T04:08:03;2.97;;;2.77;;
1533;SDS011;760;48.822;9.304;2022-08-05T04:10:32;10.10;;;3.50;;
1533;SDS011;760;48.822;9.304;2022-08-05T04:12:59;7.70;;;3.80;;
1533;SDS011;760;48.822;9.304;2022-08-05T04:15:27;4.90;;;3.77;;
1533;SDS011;760;48.822;9.304;2022-08-05T04:17:53;3.93;;;3.63;;
1533;SDS011;760;48.822;9.304;2022-08-05T04:20:21;5.63;;;3.43;;
1533;SDS011;760;48.822;9.304;2022-08-05T04:22:47;2.97;;;2.77;;
1533;SDS011;760;48.822;9.304;2022-08-05T04:25:13;6.83;;;3.10;;
1533;SDS011;760;48.822;9.304;2022-08-05T04:27:40;3.50;;;3.20;;
1533;SDS011;760;48.822;9.304;2022-08-05T04:30:06;4.17;;;3.80;;
1533;SDS011;760;48.822;9.304;2022-08-05T04:32:33;3.47;;;3.13;;
1533;SDS011;760;48.822;9.304;2022-08-05T04:34:58;3.43;;;3.13;;
1533;SDS011;760;48.822;9.304;2022-08-05T04:37:24;3.30;;;3.10;;
1533;SDS011;760;48.822;9.304;2022-08-05T04:39:49;3.70;;;3.40;;
1533;SDS011;760;48.822;9.304;2022-08-05T04:42:15;4.03;;;3.73;;
1533;SDS011;760;48.822;9.304;2022-08-05T04:44:41;3.87;;;3.57;;
1533;SDS011;760;48.822;9.304;2022-08-05T04:47:06;3.33;;;3.10;;
1533;SDS011;760;48.822;9.304;2022-08-05T04:49:32;3.60;;;3.40;;
1533;SDS011;760;48.822;9.304;2022-08-05T04:51:57;4.00;;;3.60;;
1533;SDS011;760;48.822;9.304;2022-08-05T04:54:23;3.90;;;3.60;;
1533;SDS011;760;48.822;9.304;2022-08-05T04:56:51;3.93;;;3.47;;
1533;SDS011;760;48.822;9.304;2022-08-05T04:59:18;3.53;;;3.33;;
1533;SDS011;760;48.822;9.304;2022-08-05T05:01:44;3.80;;;3.50;;
1533;SDS011;760;48.822;9.304;2022-08-05T05:04:10;3.60;;;3.30;;
1533;SDS011;760;48.822;9.304;2022-08-05T05:06:36;3.90;;;3.60;;
1533;SDS011;760;48.822;9.304;2022-08-05T05:09:02;4.57;;;4.17;;
1533;SDS011;760;48.822;9.304;2022-08-05T05:11:28;3.97;;;3.57;;
1533;SDS011;760;48.822;9.304;2022-08-05T05:13:53;3.77;;;3.47;;
1533;SDS011;760;48.822;9.304;2022-08-05T05:16:19;4.13;;;3.73;;
1533;SDS011;760;48.822;9.304;2022-08-05T05:18:45;4.20;;;3.90;;
1533;SDS011;760;48.822;9.304;2022-08-05T05:21:10;6.67;;;3.80;;
1533;SDS011;760;48.822;9.304;2022-08-05T05:23:36;7.63;;;4.10;;
1533;SDS011;760;48.822;9.304;2022-08-05T05:26:02;4.20;;;3.80;;
1533;SDS011;760;48.822;9.304;2022-08-05T05:28:28;5.00;;;3.90;;
1533;SDS011;760;48.822;9.304;2022-08-05T05:30:53;5.10;;;4.60;;
1533;SDS011;760;48.822;9.304;2022-08-05T05:33:19;5.57;;;4.67;;
1533;SDS011;760;48.822;9.304;2022-08-05T05:35:45;5.00;;;4.40;;
1533;SDS011;760;48.822;9.304;2022-08-05T05:38:11;4.50;;;4.20;;
1533;SDS011;760;48.822;9.304;2022-08-05T05:40:37;5.90;;;4.27;;
1533;SDS011;760;48.822;9.304;2022-08-05T05:43:03;4.83;;;4.43;;
1533;SDS011;760;48.822;9.304;2022-08-05T05:45:30;6.13;;;4.73;;
1533;SDS011;760;48.822;9.304;2022-08-05T05:48:01;5.60;;;4.30;;
1533;SDS011;760;48.822;9.304;2022-08-05T05:50:31;5.77;;;4.70;;
1533;SDS011;760;48.822;9.304;2022-08-05T05:52:57;4.90;;;4.50;;
1533;SDS011;760;48.822;9.304;2022-08-05T05:55:22;5.47;;;5.07;;
1533;SDS011;760;48.822;9.304;2022-08-05T05:57:48;4.97;;;4.57;;
1533;SDS011;760;48.822;9.304;2022-08-05T06:00:16;5.10;;;4.60;;
1533;SDS011;760;48.822;9.304;2022-08-05T06:02:42;5.10;;;4.70;;
1533;SDS011;760;48.822;9.304;2022-08-05T06:05:10;5.30;;;4.50;;
1533;SDS011;760;48.822;9.304;2022-08-05T06:07:37;4.20;;;3.73;;
1533;SDS011;760;48.822;9.304;2022-08-05T06:10:04;5.03;;;4.30;;
1533;SDS011;760;48.822;9.304;2022-08-05T06:12:30;6.53;;;3.90;;
1533;SDS011;760;48.822;9.304;2022-08-05T06:14:56;4.47;;;4.07;;
1533;SDS011;760;48.822;9.304;2022-08-05T06:17:21;4.03;;;3.37;;
1533;SDS011;760;48.822;9.304;2022-08-05T06:19:47;3.20;;;3.00;;
1533;SDS011;760;48.822;9.304;2022-08-05T06:22:15;4.97;;;3.20;;
1533;SDS011;760;48.822;9.304;2022-08-05T06:24:50;4.20;;;2.90;;
1533;SDS011;760;48.822;9.304;2022-08-05T06:27:16;3.90;;;3.60;;
1533;SDS011;760;48.822;9.304;2022-08-05T06:29:42;3.70;;;3.40;;
1533;SDS011;760;48.822;9.304;2022-08-05T06:32:08;3.27;;;3.07;;
1533;SDS011;760;48.822;9.304;2022-08-05T06:34:34;3.27;;;3.00;;
1533;SDS011;760;48.822;9.304;2022-08-05T06:37:00;3.70;;;2.40;;
1533;SDS011;760;48.822;9.304;2022-08-05T06:39:25;4.00;;;3.70;;
1533;SDS011;760;48.822;9.304;2022-08-05T06:41:51;3.00;;;2.80;;
1533;SDS011;760;48.822;9.304;2022-08-05T06:44:17;3.30;;;3.03;;
1533;SDS011;760;48.822;9.304;2022-08-05T06:46:42;3.70;;;3.07;;
1533;SDS011;760;48.822;9.304;2022-08-05T06:49:08;3.80;;;3.50;;
1533;SDS011;760;48.822;9.304;2022-08-05T06:51:34;3.87;;;3.20;;
1533;SDS011;760;48.822;9.304;2022-08-05T06:54:00;3.20;;;2.90;;
1533;SDS011;760;48.822;9.304;2022-08-05T06:56:27;2.97;;;2.77;;
1533;SDS011;760;48.822;9.304;2022-08-05T06:58:53;2.73;;;2.57;;
1533;SDS011;760;48.822;9.304;2022-08-05T07:01:19;6.37;;;3.30;;
1533;SDS011;760;48.822;9.304;2022-08-05T07:03:45;3.17;;;2.90;;
1533;SDS011;760;48.822;9.304;2022-08-05T07:06:11;4.10;;;3.70;;
1533;SDS011;760;48.822;9.304;2022-08-05T07:08:37;3.03;;;2.83;;
1533;SDS011;760;48.822;9.304;2022-08-05T07:11:02;4.67;;;4.00;;
1533;SDS011;760;48.822;9.304;2022-08-05T07:13:29;6.27;;;2.90;;
1533;SDS011;760;48.822;9.304;2022-08-05T07:16:15;3.90;;;3.60;;
1533;SDS011;760;48.822;9.304;2022-08-05T07:19:00;2.87;;;2.67;;
1533;SDS011;760;48.822;9.304;2022-08-05T07:21:25;3.60;;;3.30;;
1533;SDS011;760;48.822;9.304;2022-08-05T07:23:51;3.00;;;2.80;;
1533;SDS011;760;48.822;9.304;2022-08-05T07:26:16;3.33;;;3.03;;
1533;SDS011;760;48.822;9.304;2022-08-05T07:28:42;5.20;;;3.13;;
1533;SDS011;760;48.822;9.304;2022-08-05T07:31:08;4.07;;;3.77;;
1533;SDS011;760;48.822;9.304;2022-08-05T07:33:33;3.40;;;3.10;;
1533;SDS011;760;48.822;9.304;2022-08-05T07:35:59;3.50;;;3.30;;
1533;SDS011;760;48.822;9.304;2022-08-05T07:38:25;3.57;;;3.33;;
1533;SDS011;760;48.822;9.304;2022-08-05T07:40:51;3.17;;;2.90;;
1533;SDS011;760;48.822;9.304;2022-08-05T07:43:17;5.60;;;2.83;;
1533;SDS011;760;48.822;9.304;2022-08-05T07:45:43;3.90;;;3.10;;
1533;SDS011;760;48.822;9.304;2022-08-05T07:48:09;3.10;;;2.90;;
1533;SDS011;760;48.822;9.304;2022-08-05T07:50:35;4.03;;;3.73;;
1533;SDS011;760;48.822;9.304;2022-08-05T07:53:01;5.00;;;3.83;;
1533;SDS011;760;48.822;9.304;2022-08-05T07:55:26;2.60;;;2.50;;
1533;SDS011;760;48.822;9.304;2022-08-05T07:57:52;2.60;;;2.50;;
1533;SDS011;760;48.822;9.304;2022-08-05T08:00:18;3.30;;;3.10;;
1533;SDS011;760;48.822;9.304;2022-08-05T08:02:43;3.07;;;2.87;;
1533;SDS011;760;48.822;9.304;2022-08-05T08:05:09;3.40;;;2.77;;
1533;SDS011;760;48.822;9.304;2022-08-05T08:07:35;3.00;;;2.80;;
1533;SDS011;760;48.822;9.304;2022-08-05T08:10:01;3.30;;;3.10;;
1533;SDS011;760;48.822;9.304;2022-08-05T08:12:27;3.23;;;3.03;;
1533;SDS011;760;48.822;9.304;2022-08-05T08:14:52;3.00;;;2.70;;
1533;SDS011;760;48.822;9.304;2022-08-05T08:17:18;2.70;;;2.60;;
1533;SDS011;760;48.822;9.304;2022-08-05T08:19:44;2.60;;;2.40;;
1533;SDS011;760;48.822;9.304;2022-08-05T08:22:10;3.27;;;3.07;;
1533;SDS011;760;48.822;9.304;2022-08-05T08:24:36;2.30;;;2.20;;
1533;SDS011;760;48.822;9.304;2022-08-05T08:27:03;2.40;;;2.30;;
1533;SDS011;760;48.822;9.304;2022-08-05T08:29:29;2.93;;;2.73;;
1533;SDS011;760;48.822;9.304;2022-08-05T08:31:56;2.90;;;2.70;;
1533;SDS011;760;48.822;9.304;2022-08-05T08:34:22;2.20;;;2.10;;
1533;SDS011;760;48.822;9.304;2022-08-05T08:36:49;2.27;;;2.17;;
1533;SDS011;760;48.822;9.304;2022-08-05T08:39:17;2.20;;;2.10;;
1533;SDS011;760;48.822;9.304;2022-08-05T08:41:44;2.13;;;2.03;;
1533;SDS011;760;48.822;9.304;2022-08-05T08:44:16;2.30;;;2.20;;
1533;SDS011;760;48.822;9.304;2022-08-05T08:46:43;2.30;;;2.20;;
1533;SDS011;760;48.822;9.304;2022-08-05T08:49:14;3.40;;;2.53;;
1533;SDS011;760;48.822;9.304;2022-08-05T08:51:44;2.50;;;2.40;;
1533;SDS011;760;48.822;9.304;2022-08-05T08:54:12;2.00;;;1.90;;
1533;SDS011;760;48.822;9.304;2022-08-05T08:56:38;2.37;;;2.17;;
1533;SDS011;760;48.822;9.304;2022-08-05T08:59:05;2.20;;;2.10;;
1533;SDS011;760;48.822;9.304;2022-08-05T09:01:31;3.53;;;3.33;;
1533;SDS011;760;48.822;9.304;2022-08-05T09:03:57;2.30;;;2.20;;
1533;SDS011;760;48.822;9.304;2022-08-05T09:06:28;2.53;;;2.43;;
1533;SDS011;760;48.822;9.304;2022-08-05T09:08:54;2.20;;;2.10;;
1533;SDS011;760;48.822;9.304;2022-08-05T09:11:22;2.77;;;2.60;;
1533;SDS011;760;48.822;9.304;2022-08-05T09:13:47;2.57;;;2.47;;
1533;SDS011;760;48.822;9.304;2022-08-05T09:16:13;2.67;;;2.57;;
1533;SDS011;760;48.822;9.304;2022-08-05T09:18:39;2.67;;;2.57;;
1533;SDS011;760;48.822;9.304;2022-08-05T09:21:05;2.73;;;2.53;;
1533;SDS011;760;48.822;9.304;2022-08-05T09:23:31;2.90;;;2.70;;
1533;SDS011;760;48.822;9.304;2022-08-05T09:26:13;2.43;;;2.33;;
1533;SDS011;760;48.822;9.304;2022-08-05T09:28:43;2.43;;;2.33;;
1533;SDS011;760;48.822;9.304;2022-08-05T09:31:12;3.53;;;2.70;;
1533;SDS011;760;48.822;9.304;2022-08-05T09:33:50;2.87;;;2.63;;
1533;SDS011;760;48.822;9.304;2022-08-05T09:36:20;2.90;;;2.70;;
1533;SDS011;760;48.822;9.304;2022-08-05T09:38:59;2.60;;;2.50;;
1533;SDS011;760;48.822;9.304;2022-08-05T09:41:27;3.03;;;2.93;;
1533;SDS011;760;48.822;9.304;2022-08-05T09:43:52;3.03;;;2.83;;
1533;SDS011;760;48.822;9.304;2022-08-05T09:48:55;3.00;;;2.90;;
1533;SDS011;760;48.822;9.304;2022-08-05T09:51:34;3.13;;;3.03;;
1533;SDS011;760;48.822;9.304;2022-08-05T09:54:02;2.93;;;2.83;;
1533;SDS011;760;48.822;9.304;2022-08-05T09:56:32;2.83;;;2.63;;
1533;SDS011;760;48.822;9.304;2022-08-05T10:01:25;2.20;;;2.10;;
1533;SDS011;760;48.822;9.304;2022-08-05T10:03:58;2.50;;;2.40;;
1533;SDS011;760;48.822;9.304;2022-08-05T10:06:28;2.60;;;2.50;;
1533;SDS011;760;48.822;9.304;2022-08-05T10:08:54;2.70;;;2.60;;
1533;SDS011;760;48.822;9.304;2022-08-05T10:11:33;2.77;;;2.67;;
1533;SDS011;760;48.822;9.304;2022-08-05T10:13:59;3.17;;;3.03;;
1533;SDS011;760;48.822;9.304;2022-08-05T10:16:48;3.37;;;3.27;;
1533;SDS011;760;48.822;9.304;2022-08-05T10:19:15;2.70;;;2.60;;
1533;SDS011;760;48.822;9.304;2022-08-05T10:21:41;3.13;;;2.93;;
1533;SDS011;760;48.822;9.304;2022-08-05T10:24:07;2.80;;;2.70;;
1533;SDS011;760;48.822;9.304;2022-08-05T10:26:37;3.77;;;2.57;;
1533;SDS011;760;48.822;9.304;2022-08-05T10:29:06;3.13;;;3.03;;
1533;SDS011;760;48.822;9.304;2022-08-05T10:31:32;2.90;;;2.80;;
1533;SDS011;760;48.822;9.304;2022-08-05T10:33:58;2.80;;;2.60;;
1533;SDS011;760;48.822;9.304;2022-08-05T10:36:23;2.40;;;2.30;;
1533;SDS011;760;48.822;9.304;2022-08-05T10:38:49;2.60;;;2.50;;
1533;SDS011;760;48.822;9.304;2022-08-05T10:43:56;2.50;;;2.40;;
1533;SDS011;760;48.822;9.304;2022-08-05T10:47:08;2.43;;;2.33;;
1533;SDS011;760;48.822;9.304;2022-08-05T10:49:22;2.43;;;2.23;;
1533;SDS011;760;48.822;9.304;2022-08-05T10:51:50;2.20;;;2.10;;
1533;SDS011;760;48.822;9.304;2022-08-05T10:54:24;2.60;;;2.40;;
1533;SDS011;760;48.822;9.304;2022-08-05T10:57:29;2.37;;;2.27;;
1533;SDS011;760;48.822;9.304;2022-08-05T11:05:28;2.40;;;2.30;;
1533;SDS011;760;48.822;9.304;2022-08-05T11:08:01;2.60;;;2.43;;
1533;SDS011;760;48.822;9.304;2022-08-05T11:10:28;2.50;;;2.40;;
1533;SDS011;760;48.822;9.304;2022-08-05T11:12:55;2.50;;;2.40;;
1533;SDS011;760;48.822;9.304;2022-08-05T11:17:48;2.30;;;2.20;;
1533;SDS011;760;48.822;9.304;2022-08-05T11:20:32;2.30;;;2.20;;
1533;SDS011;760;48.822;9.304;2022-08-05T11:23:23;2.17;;;2.07;;
1533;SDS011;760;48.822;9.304;2022-08-05T11:33:55;2.77;;;2.57;;
1533;SDS011;760;48.822;9.304;2022-08-05T11:36:13;2.37;;;2.03;;
1533;SDS011;760;48.822;9.304;2022-08-05T11:43:55;2.03;;;1.93;;
1533;SDS011;760;48.822;9.304;2022-08-05T11:46:28;2.20;;;2.10;;
1533;SDS011;760;48.822;9.304;2022-08-05T11:48:55;2.20;;;2.10;;
1533;SDS011;760;48.822;9.304;2022-08-05T11:51:22;2.17;;;2.07;;
1533;SDS011;760;48.822;9.304;2022-08-05T11:53:49;1.93;;;1.83;;
1533;SDS011;760;48.822;9.304;2022-08-05T11:56:15;2.27;;;2.10;;
1533;SDS011;760;48.822;9.304;2022-08-05T11:58:42;2.40;;;2.20;;
1533;SDS011;760;48.822;9.304;2022-08-05T12:01:10;2.03;;;1.83;;
1533;SDS011;760;48.822;9.304;2022-08-05T12:06:17;2.47;;;2.37;;
1533;SDS011;760;48.822;9.304;2022-08-05T12:08:45;2.53;;;2.33;;
1533;SDS011;760;48.822;9.304;2022-08-05T12:11:26;2.03;;;1.93;;
1533;SDS011;760;48.822;9.304;2022-08-05T12:13:54;2.97;;;2.30;;
1533;SDS011;760;48.822;9.304;2022-08-05T12:16:28;2.73;;;2.50;;
1533;SDS011;760;48.822;9.304;2022-08-05T12:18:57;2.30;;;2.20;;
1533;SDS011;760;48.822;9.304;2022-08-05T12:21:30;2.67;;;2.47;;
1533;SDS011;760;48.822;9.304;2022-08-05T12:24:17;2.27;;;2.10;;
1533;SDS011;760;48.822;9.304;2022-08-05T12:26:51;2.50;;;2.30;;
1533;SDS011;760;48.822;9.304;2022-08-05T12:29:18;2.20;;;2.03;;
1533;SDS011;760;48.822;9.304;2022-08-05T12:34:25;2.70;;;2.10;;
1533;SDS011;760;48.822;9.304;2022-08-05T12:36:53;2.27;;;2.07;;
1533;SDS011;760;48.822;9.304;2022-08-05T12:39:24;2.20;;;2.10;;
1533;SDS011;760;48.822;9.304;2022-08-05T12:41:50;3.43;;;2.30;;
1533;SDS011;760;48.822;9.304;2022-08-05T12:44:20;3.10;;;2.27;;
1533;SDS011;760;48.822;9.304;2022-08-05T12:46:51;2.73;;;2.53;;
1533;SDS011;760;48.822;9.304;2022-08-05T12:49:18;2.27;;;2.17;;
1533;SDS011;760;48.822;9.304;2022-08-05T12:51:51;2.17;;;2.07;;
1533;SDS011;760;48.822;9.304;2022-08-05T12:54:25;2.07;;;1.97;;
1533;SDS011;760;48.822;9.304;2022-08-05T12:56:59;2.77;;;2.57;;
1533;SDS011;760;48.822;9.304;2022-08-05T13:04:35;2.93;;;2.73;;
1533;SDS011;760;48.822;9.304;2022-08-05T13:07:03;2.13;;;1.93;;
1533;SDS011;760;48.822;9.304;2022-08-05T13:09:37;2.50;;;2.30;;
1533;SDS011;760;48.822;9.304;2022-08-05T13:12:07;2.23;;;2.10;;
1533;SDS011;760;48.822;9.304;2022-08-05T13:14:36;2.90;;;2.20;;
1533;SDS011;760;48.822;9.304;2022-08-05T13:22:45;2.53;;;2.33;;
1533;SDS011;760;48.822;9.304;2022-08-05T13:25:12;2.37;;;2.27;;
1533;SDS011;760;48.822;9.304;2022-08-05T13:27:40;2.47;;;2.37;;
1533;SDS011;760;48.822;9.304;2022-08-05T13:30:08;2.23;;;2.13;;
1533;SDS011;760;48.822;9.304;2022-08-05T13:32:36;2.63;;;2.53;;
1533;SDS011;760;48.822;9.304;2022-08-05T13:35:02;3.43;;;3.07;;
1533;SDS011;760;48.822;9.304;2022-08-05T13:37:28;7.00;;;3.53;;
1533;SDS011;760;48.822;9.304;2022-08-05T13:39:53;2.47;;;2.37;;
1533;SDS011;760;48.822;9.304;2022-08-05T13:42:20;3.73;;;2.60;;
1533;SDS011;760;48.822;9.304;2022-08-05T13:44:49;2.57;;;2.40;;
1533;SDS011;760;48.822;9.304;2022-08-05T13:47:15;5.33;;;2.67;;
1533;SDS011;760;48.822;9.304;2022-08-05T13:49:40;3.30;;;3.00;;
1533;SDS011;760;48.822;9.304;2022-08-05T13:52:16;3.37;;;2.40;;
1533;SDS011;760;48.822;9.304;2022-08-05T13:54:53;2.57;;;2.37;;
1533;SDS011;760;48.822;9.304;2022-08-05T13:57:19;2.20;;;2.10;;
1533;SDS011;760;48.822;9.304;2022-08-05T13:59:45;3.10;;;2.80;;
1533;SDS011;760;48.822;9.304;2022-08-05T14:02:12;2.40;;;2.30;;
1533;SDS011;760;48.822;9.304;2022-08-05T14:04:42;3.20;;;2.90;;
1533;SDS011;760;48.822;9.304;2022-08-05T14:07:29;2.47;;;2.27;;
1533;SDS011;760;48.822;9.304;2022-08-05T14:09:55;3.00;;;2.80;;
1533;SDS011;760;48.822;9.304;2022-08-05T14:12:21;3.00;;;2.80;;
1533;SDS011;760;48.822;9.304;2022-08-05T14:14:46;2.50;;;2.40;;
1533;SDS011;760;48.822;9.304;2022-08-05T14:17:12;2.40;;;2.30;;
1533;SDS011;760;48.822;9.304;2022-08-05T14:19:39;2.47;;;2.33;;
1533;SDS011;760;48.822;9.304;2022-08-05T14:22:08;2.30;;;2.10;;
1533;SDS011;760;48.822;9.304;2022-08-05T14:24:34;2.60;;;2.40;;
1533;SDS011;760;48.822;9.304;2022-08-05T14:27:01;2.43;;;2.23;;
1533;SDS011;760;48.822;9.304;2022-08-05T14:29:26;2.07;;;1.93;;
1533;SDS011;760;48.822;9.304;2022-08-05T14:31:52;2.30;;;2.20;;
1533;SDS011;760;48.822;9.304;2022-08-05T14:34:18;2.40;;;2.10;;
1533;SDS011;760;48.822;9.304;2022-08-05T14:36:44;2.30;;;2.10;;
1533;SDS011;760;48.822;9.304;2022-08-05T14:39:09;2.23;;;2.10;;
1533;SDS011;760;48.822;9.304;2022-08-05T14:41:35;2.70;;;2.53;;
1533;SDS011;760;48.822;9.304;2022-08-05T14:44:01;2.47;;;2.27;;
1533;SDS011;760;48.822;9.304;2022-08-05T14:46:28;2.80;;;2.00;;
1533;SDS011;760;48.822;9.304;2022-08-05T14:48:54;2.70;;;2.43;;
1533;SDS011;760;48.822;9.304;2022-08-05T14:51:20;2.20;;;2.10;;
1533;SDS011;760;48.822;9.304;2022-08-05T14:53:46;2.13;;;2.00;;
1533;SDS011;760;48.822;9.304;2022-08-05T14:56:13;2.73;;;2.53;;
1533;SDS011;760;48.822;9.304;2022-08-05T14:58:40;3.13;;;2.90;;
1533;SDS011;760;48.822;9.304;2022-08-05T15:01:05;3.00;;;2.80;;
1533;SDS011;760;48.822;9.304;2022-08-05T15:03:31;2.23;;;2.13;;
1533;SDS011;760;48.822;9.304;2022-08-05T15:05:57;2.60;;;2.00;;
1533;SDS011;760;48.822;9.304;2022-08-05T15:08:22;2.20;;;2.00;;
1533;SDS011;760;48.822;9.304;2022-08-05T15:10:49;2.60;;;2.40;;
1533;SDS011;760;48.822;9.304;2022-08-05T15:13:15;3.07;;;2.53;;
1533;SDS011;760;48.822;9.304;2022-08-05T15:15:41;3.03;;;2.70;;
1533;SDS011;760;48.822;9.304;2022-08-05T15:18:06;2.63;;;2.50;;
1533;SDS011;760;48.822;9.304;2022-08-05T15:20:32;3.30;;;3.10;;
1533;SDS011;760;48.822;9.304;2022-08-05T15:23:02;2.60;;;2.50;;
1533;SDS011;760;48.822;9.304;2022-08-05T15:25:32;2.83;;;2.63;;
1533;SDS011;760;48.822;9.304;2022-08-05T15:27:58;7.57;;;5.67;;
1533;SDS011;760;48.822;9.304;2022-08-05T15:30:24;4.47;;;4.10;;
1533;SDS011;760;48.822;9.304;2022-08-05T15:32:50;7.27;;;3.73;;
1533;SDS011;760;48.822;9.304;2022-08-05T15:35:16;3.30;;;2.97;;
1533;SDS011;760;48.822;9.304;2022-08-05T15:37:42;6.20;;;3.50;;
1533;SDS011;760;48.822;9.304;2022-08-05T15:40:07;4.73;;;3.50;;
1533;SDS011;760;48.822;9.304;2022-08-05T15:42:34;3.53;;;3.23;;
1533;SDS011;760;48.822;9.304;2022-08-05T15:44:59;4.77;;;4.37;;
1533;SDS011;760;48.822;9.304;2022-08-05T15:47:25;6.77;;;4.10;;
1533;SDS011;760;48.822;9.304;2022-08-05T15:49:51;4.37;;;3.97;;
1533;SDS011;760;48.822;9.304;2022-08-05T15:52:17;4.17;;;3.77;;
1533;SDS011;760;48.822;9.304;2022-08-05T15:54:43;3.83;;;3.53;;
1533;SDS011;760;48.822;9.304;2022-08-05T15:57:09;3.70;;;3.40;;
1533;SDS011;760;48.822;9.304;2022-08-05T15:59:35;2.80;;;2.60;;
1533;SDS011;760;48.822;9.304;2022-08-05T16:02:01;2.90;;;2.70;;
1533;SDS011;760;48.822;9.304;2022-08-05T16:04:26;3.10;;;2.60;;
1533;SDS011;760;48.822;9.304;2022-08-05T16:06:52;3.30;;;3.10;;
1533;SDS011;760;48.822;9.304;2022-08-05T16:09:18;3.37;;;3.17;;
1533;SDS011;760;48.822;9.304;2022-08-05T16:11:44;3.03;;;2.77;;
1533;SDS011;760;48.822;9.304;2022-08-05T16:14:10;3.47;;;3.17;;
1533;SDS011;760;48.822;9.304;2022-08-05T16:16:36;5.00;;;3.53;;
1533;SDS011;760;48.822;9.304;2022-08-05T16:19:02;5.60;;;3.57;;
1533;SDS011;760;48.822;9.304;2022-08-05T16:21:27;3.67;;;3.40;;
1533;SDS011;760;48.822;9.304;2022-08-05T16:23:53;7.03;;;2.90;;
1533;SDS011;760;48.822;9.304;2022-08-05T16:26:19;5.17;;;4.30;;
1533;SDS011;760;48.822;9.304;2022-08-05T16:28:45;3.97;;;3.67;;
1533;SDS011;760;48.822;9.304;2022-08-05T16:31:11;2.67;;;2.50;;
1533;SDS011;760;48.822;9.304;2022-08-05T16:33:36;2.67;;;2.47;;
1533;SDS011;760;48.822;9.304;2022-08-05T16:36:02;3.57;;;3.07;;
1533;SDS011;760;48.822;9.304;2022-08-05T16:38:28;2.97;;;2.77;;
1533;SDS011;760;48.822;9.304;2022-08-05T16:40:54;3.43;;;3.13;;
1533;SDS011;760;48.822;9.304;2022-08-05T16:43:22;2.77;;;2.57;;
1533;SDS011;760;48.822;9.304;2022-08-05T16:45:49;3.97;;;2.90;;
1533;SDS011;760;48.822;9.304;2022-08-05T16:48:15;4.10;;;3.43;;
1533;SDS011;760;48.822;9.304;2022-08-05T16:50:41;3.50;;;3.30;;
1533;SDS011;760;48.822;9.304;2022-08-05T16:53:07;3.13;;;2.90;;
1533;SDS011;760;48.822;9.304;2022-08-05T16:55:32;3.20;;;3.00;;
1533;SDS011;760;48.822;9.304;2022-08-05T16:57:58;3.80;;;3.50;;
1533;SDS011;760;48.822;9.304;2022-08-05T17:00:24;5.20;;;2.93;;
1533;SDS011;760;48.822;9.304;2022-08-05T17:02:49;3.27;;;2.97;;
1533;SDS011;760;48.822;9.304;2022-08-05T17:05:15;3.20;;;2.90;;
1533;SDS011;760;48.822;9.304;2022-08-05T17:07:41;3.20;;;2.90;;
1533;SDS011;760;48.822;9.304;2022-08-05T17:10:07;3.00;;;2.80;;
1533;SDS011;760;48.822;9.304;2022-08-05T17:12:33;3.33;;;3.03;;
1533;SDS011;760;48.822;9.304;2022-08-05T17:14:58;2.40;;;2.20;;
1533;SDS011;760;48.822;9.304;2022-08-05T17:17:24;2.73;;;2.53;;
1533;SDS011;760;48.822;9.304;2022-08-05T17:19:57;2.93;;;2.73;;
1533;SDS011;760;48.822;9.304;2022-08-05T17:22:23;3.03;;;2.83;;
1533;SDS011;760;48.822;9.304;2022-08-05T17:24:49;2.87;;;2.67;;
1533;SDS011;760;48.822;9.304;2022-08-05T17:27:14;2.30;;;2.20;;
1533;SDS011;760;48.822;9.304;2022-08-05T17:29:40;2.87;;;2.67;;
1533;SDS011;760;48.822;9.304;2022-08-05T17:32:07;3.00;;;2.80;;
1533;SDS011;760;48.822;9.304;2022-08-05T17:34:33;2.50;;;2.30;;
1533;SDS011;760;48.822;9.304;2022-08-05T17:36:59;3.27;;;2.97;;
1533;SDS011;760;48.822;9.304;2022-08-05T17:39:24;2.50;;;2.30;;
1533;SDS011;760;48.822;9.304;2022-08-05T17:41:50;3.53;;;3.23;;
1533;SDS011;760;48.822;9.304;2022-08-05T17:44:16;2.87;;;2.60;;
1533;SDS011;760;48.822;9.304;2022-08-05T17:46:41;2.73;;;2.53;;
1533;SDS011;760;48.822;9.304;2022-08-05T17:49:07;2.70;;;2.50;;
1533;SDS011;760;48.822;9.304;2022-08-05T17:51:33;2.90;;;2.70;;
1533;SDS011;760;48.822;9.304;2022-08-05T17:54:01;3.87;;;3.23;;
1533;SDS011;760;48.822;9.304;2022-08-05T17:56:28;3.77;;;3.30;;
1533;SDS011;760;48.822;9.304;2022-08-05T17:58:57;3.07;;;2.87;;
1533;SDS011;760;48.822;9.304;2022-08-05T18:01:22;2.87;;;2.70;;
1533;SDS011;760;48.822;9.304;2022-08-05T18:03:48;3.57;;;3.30;;
1533;SDS011;760;48.822;9.304;2022-08-05T18:06:14;4.23;;;3.90;;
1533;SDS011;760;48.822;9.304;2022-08-05T18:08:40;3.73;;;3.40;;
1533;SDS011;760;48.822;9.304;2022-08-05T18:11:07;3.10;;;2.80;;
1533;SDS011;760;48.822;9.304;2022-08-05T18:13:33;3.17;;;2.87;;
1533;SDS011;760;48.822;9.304;2022-08-05T18:15:58;3.53;;;3.23;;
1533;SDS011;760;48.822;9.304;2022-08-05T18:18:24;4.37;;;3.97;;
1533;SDS011;760;48.822;9.304;2022-08-05T18:20:50;3.90;;;3.60;;
1533;SDS011;760;48.822;9.304;2022-08-05T18:23:15;4.10;;;3.80;;
1533;SDS011;760;48.822;9.304;2022-08-05T18:25:41;4.33;;;3.93;;
1533;SDS011;760;48.822;9.304;2022-08-05T18:28:07;3.57;;;3.27;;
1533;SDS011;760;48.822;9.304;2022-08-05T18:30:33;5.17;;;4.43;;
1533;SDS011;760;48.822;9.304;2022-08-05T18:32:59;4.20;;;3.80;;
1533;SDS011;760;48.822;9.304;2022-08-05T18:35:25;5.03;;;4.20;;
1533;SDS011;760;48.822;9.304;2022-08-05T18:37:51;4.67;;;3.53;;
1533;SDS011;760;48.822;9.304;2022-08-05T18:40:16;4.83;;;4.43;;
1533;SDS011;760;48.822;9.304;2022-08-05T18:42:42;5.83;;;4.60;;
1533;SDS011;760;48.822;9.304;2022-08-05T18:45:08;4.37;;;3.97;;
1533;SDS011;760;48.822;9.304;2022-08-05T18:47:34;4.20;;;3.90;;
1533;SDS011;760;48.822;9.304;2022-08-05T18:50:00;4.90;;;4.40;;
1533;SDS011;760;48.822;9.304;2022-08-05T18:52:44;4.17;;;3.87;;
1533;SDS011;760;48.822;9.304;2022-08-05T18:55:11;4.97;;;4.57;;
1533;SDS011;760;48.822;9.304;2022-08-05T18:57:37;4.83;;;4.13;;
1533;SDS011;760;48.822;9.304;2022-08-05T19:00:05;4.23;;;3.93;;
1533;SDS011;760;48.822;9.304;2022-08-05T19:02:32;5.00;;;4.37;;
1533;SDS011;760;48.822;9.304;2022-08-05T19:04:58;5.03;;;4.53;;
1533;SDS011;760;48.822;9.304;2022-08-05T19:07:26;5.13;;;4.70;;
1533;SDS011;760;48.822;9.304;2022-08-05T19:09:52;6.23;;;5.63;;
1533;SDS011;760;48.822;9.304;2022-08-05T19:12:18;5.70;;;5.07;;
1533;SDS011;760;48.822;9.304;2022-08-05T19:14:43;6.03;;;5.30;;
1533;SDS011;760;48.822;9.304;2022-08-05T19:17:09;6.20;;;4.90;;
1533;SDS011;760;48.822;9.304;2022-08-05T19:19:36;5.57;;;4.37;;
1533;SDS011;760;48.822;9.304;2022-08-05T19:22:03;5.73;;;5.20;;
1533;SDS011;760;48.822;9.304;2022-08-05T19:24:29;4.63;;;4.07;;
1533;SDS011;760;48.822;9.304;2022-08-05T19:26:54;8.07;;;4.63;;
1533;SDS011;760;48.822;9.304;2022-08-05T19:29:23;6.37;;;5.77;;
1533;SDS011;760;48.822;9.304;2022-08-05T19:31:49;5.40;;;4.90;;
1533;SDS011;760;48.822;9.304;2022-08-05T19:34:15;5.67;;;5.17;;
1533;SDS011;760;48.822;9.304;2022-08-05T19:36:40;6.60;;;5.90;;
1533;SDS011;760;48.822;9.304;2022-08-05T19:39:06;5.53;;;4.67;;
1533;SDS011;760;48.822;9.304;2022-08-05T19:41:32;7.63;;;5.43;;
1533;SDS011;760;48.822;9.304;2022-08-05T19:43:57;7.17;;;4.60;;
1533;SDS011;760;48.822;9.304;2022-08-05T19:46:29;7.37;;;6.10;;
1533;SDS011;760;48.822;9.304;2022-08-05T19:48:57;6.53;;;5.70;;
1533;SDS011;760;48.822;9.304;2022-08-05T19:51:23;5.77;;;5.27;;
1533;SDS011;760;48.822;9.304;2022-08-05T19:53:49;4.83;;;4.33;;
1533;SDS011;760;48.822;9.304;2022-08-05T19:56:15;5.27;;;4.47;;
1533;SDS011;760;48.822;9.304;2022-08-05T19:58:41;6.57;;;5.40;;
1533;SDS011;760;48.822;9.304;2022-08-05T20:01:06;5.83;;;5.17;;
1533;SDS011;760;48.822;9.304;2022-08-05T20:03:32;5.27;;;4.77;;
1533;SDS011;760;48.822;9.304;2022-08-05T20:05:57;7.90;;;5.17;;
1533;SDS011;760;48.822;9.304;2022-08-05T20:08:23;7.67;;;5.33;;
1533;SDS011;760;48.822;9.304;2022-08-05T20:10:49;5.57;;;5.07;;
1533;SDS011;760;48.822;9.304;2022-08-05T20:13:14;6.20;;;5.67;;
1533;SDS011;760;48.822;9.304;2022-08-05T20:15:40;7.07;;;5.90;;
1533;SDS011;760;48.822;9.304;2022-08-05T20:18:06;5.70;;;5.10;;
1533;SDS011;760;48.822;9.304;2022-08-05T20:20:32;5.70;;;5.20;;
1533;SDS011;760;48.822;9.304;2022-08-05T20:22:58;6.17;;;4.80;;